Home > Products > Valid Products > TAF

000
FTUS46 KLOX 021600 AAB
TAFVNY
TAF AMD
KVNY 021613Z 0216/0312 00000KT P6SM SCT012
     FM021900 15008KT P6SM SKC
     FM030200 VRB03KT P6SM SKC
     FM030900 VRB03KT P6SM OVC012=



000
FTUS46 KLOX 021600 AAB
TAFSBP
TAF AMD
KSBP 021603Z 0216/0312 00000KT 6SM HZ BKN007
     FM021620 VRB03KT P6SM SCT008
     FM022000 31012KT P6SM SKC
     FM030200 VRB03KT P6SM SKC
     FM030500 VRB03KT P6SM OVC008=



000
FTUS46 KLOX 021500 AAB
TAFBUR
TAF AMD
KBUR 021558Z 0216/0312 00000KT 6SM HZ SKC
     FM021700 13006KT P6SM SKC
     FM021900 18008KT P6SM SKC
     FM030400 VRB03KT P6SM SKC
     FM030900 VRB03KT P6SM OVC012=



000
FTUS46 KLOX 021500 AAB
TAFLAX
TAF AMD
KLAX 021557Z 0216/0318 00000KT P6SM FEW017 SCT022 SCT150
     FM021800 25007KT P6SM SCT015
     FM022100 27012KT P6SM FEW020
     FM030400 VRB03KT P6SM OVC015
     FM031600 25006KT P6SM OVC020=



000
FTUS46 KLOX 021500 AAA
TAFSBA
TAF AMD
KSBA 021514Z 0215/0312 03006KT P6SM SCT006
     FM021800 19006KT P6SM SCT010
     FM022000 25008KT P6SM SKC
     FM030200 VRB03KT P6SM SKC
     FM030600 VRB03KT P6SM OVC008=



000
FTUS46 KLOX 021400 AAA
TAFLAX
TAF AMD
KLAX 021454Z 0215/0318 09005KT P6SM BKN017 BKN022
     FM021800 25007KT P6SM SCT015
     FM022100 27012KT P6SM FEW020
     FM030400 VRB03KT P6SM OVC015
     FM031600 25006KT P6SM OVC020=



000
FTUS46 KLOX 021400 AAA
TAFVNY
TAF AMD
KVNY 021427Z 0214/0312 00000KT P6SM OVC010
     FM021700 VRB03KT P6SM SKC
     FM021900 15008KT P6SM SKC
     FM030200 VRB03KT P6SM SKC
     FM030900 VRB03KT P6SM OVC012=



000
FTUS46 KLOX 021400 AAA
TAFBUR
TAF AMD
KBUR 021427Z 0214/0312 19003KT 6SM HZ OVC011
     FM021700 13006KT P6SM SKC
     FM021900 18008KT P6SM SKC
     FM030400 VRB03KT P6SM SKC
     FM030900 VRB03KT P6SM OVC012=



000
FTUS46 KLOX 021300 AAA
TAFSBP
TAF AMD
KSBP 021303Z 0213/0312 VRB03KT P6SM OVC004
     FM021600 VRB03KT P6SM SKC
     FM022000 31012KT P6SM SKC
     FM030200 VRB03KT P6SM SKC
     FM030500 VRB03KT P6SM OVC008=



000
FTUS46 KLOX 021300 AAA
TAFLGB
TAF AMD
KLGB 021303Z 0213/0312 VRB03KT P6SM OVC022
     FM021800 19008KT P6SM SKC
     FM030200 VRB03KT P6SM SKC
     FM030700 VRB03KT P6SM OVC015=



000
FTUS46 KLOX 021200 AAA
TAFSMX
TAF AMD
KSMX 021255Z 0213/0312 VRB03KT 4SM BR OVC004
     FM021700 VRB03KT P6SM SCT007
     FM022000 31012KT P6SM SKC
     FM030200 31006KT P6SM OVC006
     FM030600 VRB03KT 4SM BR OVC004=



000
FTUS46 KLOX 021200 CCA
TAFSMX
TAF COR
KSMX 021227Z 0212/0312 VRB03KT 4SM BR OVC005
     FM021700 VRB03KT P6SM SCT007
     FM022000 31012KT P6SM SKC
     FM030200 31006KT P6SM OVC006
     FM030600 VRB03KT 4SM BR OVC004=



000
FTUS46 KLOX 021100
TAFSMX
TAF
KSMX 021122Z 0212/0312 VRB03KT 4SM BR OVC004
     FM021700 VRB03KT P6SM SCT007
     FM022000 31012KT P6SM SKC
     FM030200 31006KT P6SM OVC006
     FM030600 VRB03KT 4SM BR OVC004=



000
FTUS46 KLOX 021100
TAFPMD
TAF
KPMD 021122Z 0212/0312 VRB03KT P6SM SKC
     FM022200 23014KT P6SM SKC
     FM030400 21007KT P6SM SKC=



000
FTUS46 KLOX 021100
TAFBUR
TAF
KBUR 021122Z 0212/0312 VRB03KT P6SM OVC008
     FM021700 13006KT P6SM SKC
     FM021900 18008KT P6SM SKC
     FM030400 VRB03KT P6SM SKC
     FM030900 VRB03KT P6SM OVC012=



000
FTUS46 KLOX 021100
TAFPRB
TAF
KPRB 021122Z 0212/0312 VRB03KT P6SM SKC
     FM022000 20010KT P6SM SKC
     FM022300 21018G28KT P6SM SKC
     FM030200 22012KT P6SM SKC
     FM030600 VRB03KT P6SM SKC
     FM031100 VRB03KT P6SM OVC006=



000
FTUS46 KLOX 021100
TAFLGB
TAF
KLGB 021122Z 0212/0312 VRB03KT P6SM OVC018
     FM021400 VRB03KT P6SM OVC020
     FM021800 19008KT P6SM SKC
     FM030200 VRB03KT P6SM SKC
     FM030700 VRB03KT P6SM OVC015=



000
FTUS46 KLOX 021100
TAFSBP
TAF
KSBP 021122Z 0212/0312 VRB03KT P6SM OVC006
     FM021600 VRB03KT P6SM SKC
     FM022000 31012KT P6SM SKC
     FM030200 VRB03KT P6SM SKC
     FM030500 VRB03KT P6SM OVC008=



000
FTUS46 KLOX 021100
TAFVNY
TAF
KVNY 021122Z 0212/0312 VRB03KT P6SM OVC008
     FM021700 VRB03KT P6SM SKC
     FM021900 15008KT P6SM SKC
     FM030200 VRB03KT P6SM SKC
     FM030900 VRB03KT P6SM OVC012=



000
FTUS46 KLOX 021100
TAFLAX
TAF
KLAX 021122Z 0212/0318 VRB03KT P6SM OVC015
     FM021800 25007KT P6SM SCT015
     FM022100 27012KT P6SM FEW020
     FM030400 VRB03KT P6SM OVC015
     FM031600 25006KT P6SM OVC020=



000
FTUS46 KLOX 021100
TAFWJF
TAF
KWJF 021122Z 0212/0312 VRB03KT P6SM SKC
     FM022100 24010KT P6SM SKC
     FM022300 24016G24KT P6SM SKC
     FM030300 25010KT P6SM SKC=



000
FTUS46 KLOX 021100
TAFSBA
TAF
KSBA 021122Z 0212/0312 VRB03KT 6SM BR OVC004
     FM021500 VRB03KT 6SM BR OVC007
     FM021800 19006KT P6SM SCT010
     FM022000 25008KT P6SM SKC
     FM030200 VRB03KT P6SM SKC
     FM030600 VRB03KT P6SM OVC008=



000
FTUS46 KLOX 020900 AAB
TAFSBA
TAF AMD
KSBA 020912Z 0209/0306 VRB03KT 6SM BR OVC004
     FM021200 VRB03KT 4SM BR OVC008
     FM021500 VRB03KT P6SM OVC012
     FM021700 14006KT P6SM BKN015
     FM021900 23008KT P6SM FEW020
     FM030200 VRB03KT P6SM SKC=



000
FTUS46 KLOX 020900 AAA
TAFSBP
TAF AMD
KSBP 020902Z 0209/0306 VRB03KT P6SM OVC006
     FM021100 VRB03KT 4SM BR OVC004
     FM021600 VRB03KT P6SM BKN008
     FM021900 30012KT P6SM SKC
     FM030400 VRB03KT P6SM BKN008=



000
FTUS46 KLOX 020800 AAC
TAFLAX
TAF AMD
KLAX 020850Z 0209/0312 VRB03KT P6SM SCT012
     FM021000 VRB03KT P6SM OVC012
     FM021900 25010KT P6SM FEW020
     FM030200 25006KT P6SM OVC010
     FM030700 VRB03KT P6SM OVC008=



000
FTUS46 KLOX 020700 AAA
TAFSBA
TAF AMD
KSBA 020725Z 0207/0306 VRB03KT P6SM OVC008
     FM021100 VRB03KT 4SM BR OVC008
     FM021500 VRB03KT P6SM OVC012
     FM021700 14006KT P6SM BKN015
     FM021900 23008KT P6SM FEW020
     FM030200 VRB03KT P6SM SKC=



000
FTUS46 KLOX 020700 AAB
TAFLAX
TAF AMD
KLAX 020725Z 0207/0312 VRB03KT P6SM OVC012
     FM021900 25010KT P6SM FEW020
     FM030200 25006KT P6SM OVC010
     FM030700 VRB03KT P6SM OVC008=



000
FTUS46 KLOX 020700 AAA
TAFLAX
TAF AMD
KLAX 020700Z 0207/0312 VRB03KT P6SM FEW010
     FM020830 VRB03KT P6SM OVC012
     FM021900 25010KT P6SM FEW020
     FM030200 25006KT P6SM OVC010
     FM030700 VRB03KT P6SM OVC008=



000
FTUS46 KLOX 020500
TAFSMX
TAF
KSMX 020520Z 0206/0306 VRB03KT P6SM OVC007
     FM020800 VRB03KT 4SM BR OVC004
     FM021200 VRB03KT 1SM BR OVC002
     FM021500 VRB03KT 5SM BR OVC006
     FM021700 VRB03KT P6SM BKN010
     FM021900 30012KT P6SM SKC
     FM030200 30006KT 5SM BR OVC006=



000
FTUS46 KLOX 020500
TAFPMD
TAF
KPMD 020520Z 0206/0306 21006KT P6SM SKC
     FM021400 VRB03KT P6SM SKC
     FM022100 24015KT P6SM SKC
     FM030200 24010KT P6SM SKC=



000
FTUS46 KLOX 020500
TAFVNY
TAF
KVNY 020520Z 0206/0306 VRB03KT P6SM SKC
     FM021200 VRB03KT 4SM BR OVC008
     FM021700 17008KT P6SM SKC
     FM030100 13006KT P6SM SKC
     FM030500 VRB03KT P6SM SKC=



000
FTUS46 KLOX 020500
TAFPRB
TAF
KPRB 020520Z 0206/0306 VRB03KT P6SM SKC
     FM022000 20012KT P6SM SKC
     FM022300 21018G28KT P6SM SKC
     FM030400 22012KT P6SM SKC=



000
FTUS46 KLOX 020500
TAFSBA
TAF
KSBA 020520Z 0206/0306 VRB03KT P6SM SKC
     FM021100 VRB03KT 4SM BR OVC008
     FM021500 VRB03KT P6SM OVC012
     FM021700 14006KT P6SM BKN015
     FM021900 23008KT P6SM FEW020
     FM030200 VRB03KT P6SM SKC=



000
FTUS46 KLOX 020500
TAFLAX
TAF
KLAX 020520Z 0206/0312 VRB03KT P6SM SKC
     FM020700 VRB03KT P6SM OVC012
     FM021900 25010KT P6SM FEW020
     FM030200 25006KT P6SM OVC010
     FM030700 VRB03KT P6SM OVC008=



000
FTUS46 KLOX 020500
TAFLGB
TAF
KLGB 020520Z 0206/0306 VRB03KT P6SM SKC
     FM020800 VRB03KT P6SM OVC015
     FM021600 VRB03KT P6SM BKN020
     FM021800 19008KT P6SM SKC
     FM030200 VRB03KT P6SM SKC=



000
FTUS46 KLOX 020500
TAFWJF
TAF
KWJF 020520Z 0206/0306 24008KT P6SM SKC
     FM022000 24012G18KT P6SM SKC
     FM022300 24015G25KT P6SM SKC
     FM030200 24012KT P6SM SKC=



000
FTUS46 KLOX 020500
TAFSBP
TAF
KSBP 020520Z 0206/0306 VRB03KT P6SM OVC006
     FM020900 VRB03KT 4SM BR OVC004
     FM021600 VRB03KT P6SM BKN008
     FM021900 30012KT P6SM SKC
     FM030400 VRB03KT P6SM BKN008=



000
FTUS46 KLOX 020500
TAFBUR
TAF
KBUR 020520Z 0206/0306 VRB03KT P6SM SKC
     FM021100 VRB03KT 4SM BR OVC008
     FM021700 16008KT P6SM SKC
     FM030400 VRB03KT P6SM SKC=



000
FTUS46 KLOX 020400 AAA
TAFSBP
TAF AMD
KSBP 020446Z 0205/0224 VRB03KT P6SM OVC007
     FM021600 VRB03KT P6SM BKN012
     FM021900 30012KT P6SM SKC=



000
FTUS46 KLOX 020400 AAB
TAFLAX
TAF AMD
KLAX 020403Z 0204/0306 25006KT P6SM SKC
     FM020700 VRB03KT P6SM BKN012
     FM020800 VRB03KT P6SM OVC012
     FM021600 VRB03KT P6SM BKN017
     FM021800 25010KT P6SM FEW020=



000
FTUS46 KLOX 020400 AAB
TAFLAX
TAF AMD
KLAX 020403Z 0204/0306 25006KT P6SM SKC
     FM020700 VRB03KT P6SM BKN012
     FM020800 VRB03KT P6SM OVC012
     FM021600 VRB03KT P6SM BKN017
     FM021800 25010KT P6SM FEW020=



000
FTUS46 KLOX 020400 AAA
TAFLGB
TAF AMD
KLGB 020403Z 0204/0224 VRB03KT P6SM SKC
     FM020800 VRB03KT P6SM OVC015
     FM021600 VRB03KT P6SM BKN020
     FM021800 19007KT P6SM SKC=



000
FTUS46 KLOX 020400 AAA
TAFLGB
TAF AMD
KLGB 020403Z 0204/0224 VRB03KT P6SM SKC
     FM020800 VRB03KT P6SM OVC015
     FM021600 VRB03KT P6SM BKN020
     FM021800 19007KT P6SM SKC=



000
FTUS46 KLOX 020200 AAA
TAFSMX
TAF AMD
KSMX 020259Z 0203/0224 VRB03KT 6SM BR OVC007
     FM020800 VRB03KT 1SM BR OVC004
     FM021500 VRB03KT 5SM BR OVC006
     FM021700 VRB03KT P6SM BKN010
     FM021900 30012KT P6SM SKC=



000
FTUS46 KLOX 020200 AAA
TAFLAX
TAF AMD
KLAX 020257Z 0203/0306 25006KT P6SM SKC
     FM020500 VRB03KT P6SM BKN012
     FM020800 VRB03KT P6SM OVC012
     FM021600 VRB03KT P6SM BKN017
     FM021800 25010KT P6SM FEW020=



000
FTUS46 KLOX 012300
TAFWJF
TAF
KWJF 012322Z 0200/0224 23015KT P6SM SKC
     FM020400 22008KT P6SM SKC
     FM022100 22015G22KT P6SM SKC=



000
FTUS46 KLOX 012300
TAFSBA
TAF
KSBA 012322Z 0200/0224 25008KT P6SM SKC
     FM020300 VRB03KT P6SM SKC
     FM020700 VRB03KT P6SM OVC012
     FM021100 VRB03KT 4SM BR OVC008
     FM021500 VRB03KT P6SM OVC012
     FM021700 14006KT P6SM BKN015
     FM021900 23008KT P6SM FEW017=



000
FTUS46 KLOX 012300
TAFPMD
TAF
KPMD 012322Z 0200/0224 24015KT P6SM SKC
     FM020400 21008KT P6SM SKC
     FM021400 VRB03KT P6SM SKC
     FM022100 24015G20KT P6SM SKC=



000
FTUS46 KLOX 012300
TAFSBP
TAF
KSBP 012322Z 0200/0224 30012KT P6SM SKC
     FM020400 VRB03KT P6SM SCT007
     FM020600 VRB03KT P6SM OVC007
     FM021600 VRB03KT P6SM BKN012
     FM021900 30012KT P6SM SKC=



000
FTUS46 KLOX 012300
TAFVNY
TAF
KVNY 012322Z 0200/0224 17009KT P6SM SKC
     FM020300 VRB03KT P6SM SKC
     FM020900 VRB03KT 4SM BR OVC008
     FM021400 VRB03KT 5SM HZ BKN010
     FM021600 VRB03KT P6SM SKC
     FM022000 15008KT P6SM SKC=



000
FTUS46 KLOX 012300
TAFBUR
TAF
KBUR 012322Z 0200/0224 18008KT P6SM SKC
     FM020300 13005KT P6SM SKC
     FM020800 VRB03KT 4SM BR OVC008
     FM021400 VRB03KT 5SM HZ BKN010
     FM021600 VRB03KT P6SM SKC
     FM022000 16008KT P6SM SKC=



000
FTUS46 KLOX 012300
TAFPRB
TAF
KPRB 012322Z 0200/0224 21012KT P6SM SKC
     FM020400 VRB03KT P6SM SKC
     FM022000 20012KT P6SM SKC
     FM022200 21015G22KT P6SM SKC=



000
FTUS46 KLOX 012300
TAFSMX
TAF
KSMX 012322Z 0200/0224 31012KT P6SM SKC
     FM020300 VRB03KT 5SM BR OVC005
     FM020800 VRB03KT 1SM BR OVC004
     FM021500 VRB03KT 5SM BR OVC006
     FM021700 VRB03KT P6SM BKN010
     FM021900 30012KT P6SM SKC=



000
FTUS46 KLOX 012300
TAFLAX
TAF
KLAX 012322Z 0200/0306 26010KT P6SM SKC
     FM020400 25006KT P6SM BKN012
     FM020800 VRB03KT P6SM OVC012
     FM021600 VRB03KT P6SM BKN017
     FM021800 25010KT P6SM FEW020=



000
FTUS46 KLOX 012300
TAFLGB
TAF
KLGB 012322Z 0200/0224 16007KT P6SM SKC
     FM020300 VRB03KT P6SM SKC
     FM020500 VRB03KT P6SM OVC015
     FM021600 VRB03KT P6SM BKN020
     FM021800 19007KT P6SM SKC=



000
FTUS46 KLOX 012000 AAA
TAFLAX
TAF AMD
KLAX 012059Z 0121/0224 26008KT P6SM FEW090
     FM020300 25006KT P6SM BKN012
     FM020900 VRB03KT P6SM OVC012=



000
FTUS46 KLOX 011900 AAA
TAFSBA
TAF AMD
KSBA 011927Z 0119/0218 24007KT P6SM SKC
     FM012000 24008KT P6SM SKC
     FM020400 VRB03KT P6SM SKC
     FM020700 VRB03KT P6SM OVC015
     FM021100 VRB03KT 3SM BR OVC007=



000
FTUS46 KLOX 011700
TAFSMX
TAF
KSMX 011739Z 0118/0218 24006KT P6SM FEW010
     FM011900 31012KT P6SM SKC
     FM020400 VRB03KT P6SM BKN005
     FM020900 00000KT 1SM BR OVC004=



000
FTUS46 KLOX 011700
TAFBUR
TAF
KBUR 011739Z 0118/0218 00000KT P6SM SKC
     FM012000 18008KT P6SM SKC
     FM020300 VRB03KT P6SM SKC
     FM020800 VRB03KT 4SM BR OVC008=



000
FTUS46 KLOX 011700
TAFSBP
TAF
KSBP 011739Z 0118/0218 VRB03KT P6SM SKC
     FM011900 30012KT P6SM SKC
     FM020400 VRB03KT P6SM SCT007
     FM020800 VRB03KT P6SM OVC007=



000
FTUS46 KLOX 011700
TAFLAX
TAF
KLAX 011739Z 0118/0224 00000KT P6SM FEW020 SCT140
     FM012000 26012KT P6SM SKC
     FM020300 25006KT P6SM BKN012
     FM020900 VRB03KT P6SM OVC012=



000
FTUS46 KLOX 011700
TAFPRB
TAF
KPRB 011739Z 0118/0218 00000KT P6SM SKC
     FM012100 21012KT P6SM SKC
     FM020200 31008KT P6SM SKC
     FM020800 VRB03KT P6SM SKC=



000
FTUS46 KLOX 011700
TAFWJF
TAF
KWJF 011739Z 0118/0218 24003KT P6SM SKC
     FM012200 24015KT P6SM SKC
     FM020400 24008KT P6SM SKC=



000
FTUS46 KLOX 011700
TAFPMD
TAF
KPMD 011739Z 0118/0218 VRB03KT P6SM SKC
     FM012200 24015KT P6SM SKC
     FM020400 24008KT P6SM SKC=



000
FTUS46 KLOX 011700
TAFVNY
TAF
KVNY 011739Z 0118/0218 00000KT P6SM SKC
     FM012000 17008KT P6SM SKC
     FM020300 VRB03KT P6SM SKC
     FM020900 VRB03KT 4SM BR OVC008=



000
FTUS46 KLOX 011700
TAFLGB
TAF
KLGB 011739Z 0118/0218 17003KT P6SM SKC
     FM011900 20008KT P6SM SKC
     FM020300 VRB03KT P6SM SKC
     FM020600 VRB03KT P6SM OVC012=



000
FTUS46 KLOX 011700
TAFSBA
TAF
KSBA 011739Z 0118/0218 15005KT P6SM BKN013
     FM012000 24008KT P6SM SKC
     FM020400 VRB03KT P6SM SKC
     FM020700 VRB03KT P6SM OVC015
     FM021100 VRB03KT 3SM BR OVC007=



000
FTUS46 KLOX 011500 AAB
TAFSMX
TAF AMD
KSMX 011507Z 0115/0212 17007KT P6SM SCT002 SCT008
     FM011700 VRB03KT P6SM SKC
     FM011900 31012KT P6SM SKC
     FM020400 VRB03KT P6SM BKN005
     FM020900 23002KT 1SM BR OVC004=



000
FTUS46 KLOX 011500 AAB
TAFLGB
TAF AMD
KLGB 011506Z 0115/0212 00000KT P6SM SCT016
      TEMPO 0115/0117 BKN016
     FM011700 18008KT P6SM SKC
     FM020300 VRB03KT P6SM OVC012=



000
FTUS46 KLOX 011400 AAA
TAFLAX
TAF AMD
KLAX 011451Z 0115/0218 VRB03KT P6SM OVC017
     FM011600 11006KT P6SM SCT020
     FM011800 25012KT P6SM SKC
     FM020300 25006KT P6SM BKN012
     FM020900 VRB03KT P6SM OVC012=



000
FTUS46 KLOX 011400 AAC
TAFSBA
TAF AMD
KSBA 011425Z 0114/0212 00000KT P6SM BKN007
     FM011500 12005KT P6SM BKN010
     FM011800 14007KT P6SM SCT015
     FM012000 24008KT P6SM SKC
     FM020400 VRB03KT P6SM SKC
     FM021000 VRB03KT 5SM HZ OVC010=



000
FTUS46 KLOX 011400 AAB
TAFSBA
TAF AMD
KSBA 011411Z 0114/0212 00000KT P6SM SCT007 BKN015
     FM011500 12005KT P6SM BKN010
     FM011800 14007KT P6SM SCT015
     FM012000 24008KT P6SM SKC
     FM020400 VRB03KT P6SM SKC
     FM021000 VRB03KT 5SM HZ OVC010=



000
FTUS46 KLOX 011400 AAA
TAFSBA
TAF AMD
KSBA 011402Z 0114/0212 00000KT P6SM SCT015
     FM011500 12005KT P6SM BKN010
     FM011800 14007KT P6SM SCT015
     FM012000 24008KT P6SM SKC
     FM020400 VRB03KT P6SM SKC
     FM021000 VRB03KT 5SM HZ OVC010=



000
FTUS46 KLOX 011300 AAB
TAFBUR
TAF AMD
KBUR 011359Z 0114/0212 00000KT P6SM SCT014
     FM011700 VRB03KT P6SM SKC
     FM012000 18008KT P6SM SKC
     FM020300 VRB03KT P6SM SKC
     FM020800 VRB03KT P6SM OVC008=



000
FTUS46 KLOX 011300 AAA
TAFLGB
TAF AMD
KLGB 011359Z 0114/0212 00000KT P6SM SCT016
     FM011700 18008KT P6SM SKC
     FM020300 VRB03KT P6SM OVC012=



000
FTUS46 KLOX 011300 AAA
TAFVNY
TAF AMD
KVNY 011359Z 0114/0212 00000KT P6SM SKC
     FM012000 14008KT P6SM SKC
     FM020300 VRB03KT P6SM SKC
     FM020900 VRB03KT P6SM OVC008=



000
FTUS46 KLOX 011300 AAA
TAFSMX
TAF AMD
KSMX 011304Z 0113/0212 VRB03KT 1/2SM FG VV003
     FM011500 VRB03KT 2SM BR OVC004
     FM011700 VRB03KT P6SM SKC
     FM011900 31012KT P6SM SKC
     FM020400 VRB03KT P6SM BKN005
     FM020900 23002KT 1SM BR OVC004=



000
FTUS46 KLOX 011300 AAA
TAFBUR
TAF AMD
KBUR 011303Z 0113/0212 VRB03KT P6SM BKN012
     FM011700 VRB03KT P6SM SKC
     FM012000 18008KT P6SM SKC
     FM020300 VRB03KT P6SM SKC
     FM020800 VRB03KT P6SM OVC008=



000
FTUS46 KLOX 011100
TAFLAX
TAF
KLAX 011125Z 0112/0218 10006KT P6SM OVC012
     FM011800 25012KT P6SM FEW015
     FM020300 25006KT P6SM BKN012
     FM020900 VRB03KT P6SM OVC012=



000
FTUS46 KLOX 011100
TAFPRB
TAF
KPRB 011125Z 0112/0212 VRB03KT P6SM SKC
     FM012000 21012KT P6SM SKC
     FM020500 VRB03KT P6SM SKC=



000
FTUS46 KLOX 011100
TAFVNY
TAF
KVNY 011125Z 0112/0212 VRB03KT P6SM OVC010
     FM011700 VRB03KT P6SM SKC
     FM012000 14008KT P6SM SKC
     FM020300 VRB03KT P6SM SKC
     FM020900 VRB03KT P6SM OVC008=



000
FTUS46 KLOX 011100
TAFWJF
TAF
KWJF 011125Z 0112/0212 25010KT P6SM SKC
     FM012200 24015KT P6SM SKC
     FM020400 24008KT P6SM SKC=



000
FTUS46 KLOX 011100
TAFBUR
TAF
KBUR 011125Z 0112/0212 VRB03KT P6SM OVC008
     FM011500 VRB03KT P6SM OVC010
     FM011700 VRB03KT P6SM SKC
     FM012000 18008KT P6SM SKC
     FM020300 VRB03KT P6SM SKC
     FM020800 VRB03KT P6SM OVC008=



000
FTUS46 KLOX 011100
TAFLGB
TAF
KLGB 011125Z 0112/0212 14006KT P6SM OVC012
     FM011700 18008KT P6SM SKC
     FM020300 VRB03KT P6SM OVC012=



000
FTUS46 KLOX 011100
TAFSMX
TAF
KSMX 011125Z 0112/0212 VRB03KT 1SM BR OVC004
     FM011500 VRB03KT 3SM BR OVC007
     FM011700 VRB03KT P6SM SKC
     FM011900 31012KT P6SM SKC
     FM020400 VRB03KT P6SM BKN005
     FM020900 23002KT 1SM BR OVC004=



000
FTUS46 KLOX 011100
TAFPMD
TAF
KPMD 011125Z 0112/0212 22008KT P6SM SKC
     FM012200 24015KT P6SM SKC
     FM020400 24008KT P6SM SKC=



000
FTUS46 KLOX 011100
TAFSBA
TAF
KSBA 011125Z 0112/0212 VRB03KT P6SM SKC
     FM011400 VRB03KT 3SM BR BKN006
     FM011600 12005KT P6SM BKN010
     FM011800 14007KT P6SM SCT015
     FM012000 24008KT P6SM SKC
     FM020400 VRB03KT P6SM SKC
     FM021000 VRB03KT 5SM HZ OVC010=



000
FTUS46 KLOX 011100
TAFSBP
TAF
KSBP 011125Z 0112/0212 VRB03KT P6SM SKC
     FM011900 30012KT P6SM SKC
     FM020400 VRB03KT P6SM SCT007
     FM020800 VRB03KT P6SM OVC007=



000
FTUS46 KLOX 011100 AAB
TAFSMX
TAF AMD
KSMX 011110Z 0111/0206 VRB03KT 1SM BR OVC004
     FM011500 VRB03KT 3SM BR OVC007
     FM011700 VRB03KT P6SM SKC
     FM011900 31012KT P6SM SKC
     FM020300 30006KT P6SM BKN005=



000
FTUS46 KLOX 011100 AAA
TAFSBP
TAF AMD
KSBP 011108Z 0111/0206 VRB03KT P6SM SKC
     FM011900 30012KT P6SM SKC
     FM020400 VRB03KT P6SM SCT007=



000
FTUS46 KLOX 011000 AAA
TAFWJF
TAF AMD
KWJF 011025Z 0110/0206 25015KT P6SM SKC
     FM011400 23008KT P6SM SKC
     FM012200 24015KT P6SM SKC
     FM020400 24007KT P6SM SKC=



000
FTUS46 KLOX 011000 AAA
TAFLGB
TAF AMD
KLGB 011024Z 0110/0206 14006KT P6SM SCT015
     FM011200 14006KT P6SM OVC012
     FM011700 18008KT P6SM SKC
     FM020300 VRB03KT P6SM OVC012=



000
FTUS46 KLOX 010900 AAB
TAFLAX
TAF AMD
KLAX 010905Z 0109/0212 12006KT P6SM OVC012
     FM011800 25012KT P6SM FEW017
     FM020300 25007KT P6SM BKN012
     FM020900 VRB03KT P6SM OVC012=



000
FTUS46 KLOX 010800 AAA
TAFSMX
TAF AMD
KSMX 010854Z 0109/0206 VRB03KT 5SM BR OVC010
     FM011200 VRB03KT 3SM BR OVC007
     FM011700 VRB03KT P6SM SKC
     FM011900 31012KT P6SM SKC
     FM020300 30006KT P6SM BKN005=



000
FTUS46 KLOX 010800 AAA
TAFLAX
TAF AMD
KLAX 010850Z 0109/0212 10010KT P6SM OVC012
     FM011800 25012KT P6SM FEW017
     FM020300 25007KT P6SM BKN012
     FM020900 VRB03KT P6SM OVC012=



000
FTUS46 KLOX 010700 AAA
TAFVNY
TAF AMD
KVNY 010748Z 0108/0206 VRB03KT P6SM BKN010
     FM011200 13006KT 4SM BR OVC008
     FM011600 VRB03KT 6SM HZ SKC
     FM012000 14009KT P6SM SKC
     FM020300 VRB03KT P6SM SKC=



000
FTUS46 KLOX 010700 AAA
TAFBUR
TAF AMD
KBUR 010722Z 0107/0206 13006KT 5SM BR OVC010
     FM011200 13006KT 4SM BR OVC008
     FM011600 VRB03KT 6SM HZ SKC
     FM012000 18009KT P6SM SKC
     FM020300 VRB03KT P6SM SKC=



000
FTUS46 KLOX 010500
TAFPMD
TAF
KPMD 010538Z 0106/0206 25008KT P6SM SKC
     FM012200 24015KT P6SM SKC
     FM020400 24007KT P6SM SKC=



000
FTUS46 KLOX 010500
TAFLAX
TAF
KLAX 010538Z 0106/0212 VRB03KT P6SM OVC012
     FM011800 25012KT P6SM FEW017
     FM020300 25007KT P6SM BKN012
     FM020900 VRB03KT P6SM OVC012=



000
FTUS46 KLOX 010500
TAFWJF
TAF
KWJF 010538Z 0106/0206 25015KT P6SM SKC
     FM010900 23007KT P6SM SKC
     FM012200 24015KT P6SM SKC
     FM020400 24007KT P6SM SKC=



000
FTUS46 KLOX 010500
TAFVNY
TAF
KVNY 010538Z 0106/0206 VRB03KT P6SM SKC
     FM011200 13006KT 4SM BR OVC008
     FM011600 VRB03KT 6SM HZ SKC
     FM012000 14009KT P6SM SKC
     FM020300 VRB03KT P6SM SKC=



000
FTUS46 KLOX 010500
TAFBUR
TAF
KBUR 010538Z 0106/0206 13006KT P6SM SKC
     FM011200 13006KT 4SM BR OVC008
     FM011600 VRB03KT 6SM HZ SKC
     FM012000 18009KT P6SM SKC
     FM020300 VRB03KT P6SM SKC=



000
FTUS46 KLOX 010500
TAFLGB
TAF
KLGB 010538Z 0106/0206 16006KT P6SM OVC012
     FM011700 18009KT P6SM SKC
     FM020300 VRB04KT P6SM OVC012=



000
FTUS46 KLOX 010500
TAFSBA
TAF
KSBA 010538Z 0106/0206 VRB03KT P6SM SKC WS010/34025KT
     FM011000 VRB03KT P6SM SKC
     FM011300 VRB03KT 3SM BR BKN006
     FM011600 12005KT P6SM BKN010
     FM011800 14007KT P6SM SCT015
     FM012000 24008KT P6SM SKC
     FM020400 VRB03KT P6SM SKC=



000
FTUS46 KLOX 010500
TAFSBP
TAF
KSBP 010538Z 0106/0206 32006KT P6SM SKC
     FM011200 VRB03KT 5SM BR BKN004
     FM011600 VRB03KT P6SM SKC
     FM011900 30012KT P6SM SKC
     FM020400 VRB03KT P6SM SCT007=



000
FTUS46 KLOX 010500
TAFPRB
TAF
KPRB 010538Z 0106/0206 32012KT P6SM SKC
     FM010900 VRB03KT P6SM SKC
     FM012000 21012KT P6SM SKC
     FM020500 VRB03KT P6SM SKC=



000
FTUS46 KLOX 010500
TAFSMX
TAF
KSMX 010538Z 0106/0206 32007KT P6SM SKC
     FM010700 VRB03KT 4SM BR OVC004
     FM011000 VRB03KT 1/2SM FG VV002
     FM011500 VRB03KT 3SM BR OVC004
     FM011700 VRB03KT P6SM SKC
     FM011900 31012KT P6SM SKC
     FM020300 30006KT P6SM BKN005=



000
FTUS46 KLOX 312300
TAFSBA
TAF
KSBA 312321Z 0100/0124 23007KT P6SM SKC
     FM010100 VRB03KT P6SM SKC WS010/34025KT
     FM010800 VRB03KT P6SM SKC
     FM011200 VRB03KT 3SM BR BKN006
     FM011600 12005KT P6SM BKN010
     FM011800 14007KT P6SM SCT015
     FM012000 23008KT P6SM SKC=



000
FTUS46 KLOX 312300
TAFLAX
TAF
KLAX 312321Z 0100/0206 26012KT P6SM SKC
     FM010400 VRB03KT P6SM SKC
     FM010800 14005KT 5SM BR OVC008
     FM011600 VRB03KT 6SM HZ OVC012
     FM011900 25010KT P6SM FEW017
     FM020300 25006KT P6SM BKN012=



000
FTUS46 KLOX 312300
TAFVNY
TAF
KVNY 312321Z 0100/0124 14009KT P6SM SKC
     FM010300 12005KT P6SM SKC
     FM011100 12005KT 4SM BR OVC006
     FM011600 VRB03KT 5SM HZ SKC
     FM012000 14009KT P6SM SKC=



000
FTUS46 KLOX 312300
TAFSMX
TAF
KSMX 312321Z 0100/0124 31015KT P6SM SKC
     FM010300 32007KT P6SM SKC
     FM010700 VRB03KT 4SM BR OVC004
     FM011000 VRB03KT 1/2SM FG VV002
     FM011500 VRB03KT 3SM BR OVC004
     FM011700 VRB03KT P6SM SKC
     FM011900 31012KT P6SM SKC=



000
FTUS46 KLOX 312300
TAFSBP
TAF
KSBP 312321Z 0100/0124 31017KT P6SM SKC
     FM010300 32008KT P6SM SKC
     FM011000 VRB03KT 5SM BR BKN004
     FM011600 VRB03KT P6SM SKC
     FM011900 30012KT P6SM SKC=



000
FTUS46 KLOX 312300
TAFLGB
TAF
KLGB 312321Z 0100/0124 20008KT P6SM SKC
     FM010400 14005KT P6SM SKC
     FM010800 14005KT 5SM BR OVC008
     FM011500 14005KT P6SM OVC014
     FM011800 18009KT P6SM FEW017=



000
FTUS46 KLOX 312300
TAFPRB
TAF
KPRB 312321Z 0100/0124 32015KT P6SM SKC
     FM010500 32010KT P6SM SKC
     FM011000 VRB03KT P6SM SKC
     FM012200 21012KT P6SM SKC=



000
FTUS46 KLOX 312300
TAFWJF
TAF
KWJF 312321Z 0100/0124 26022G32KT P6SM SKC
     FM010200 25017G25KT P6SM SKC
     FM010500 25012KT P6SM SKC
     FM011000 VRB03KT P6SM SKC
     FM012200 23015KT P6SM SKC=



000
FTUS46 KLOX 312300
TAFBUR
TAF
KBUR 312321Z 0100/0124 17009KT P6SM SKC
     FM010200 13006KT P6SM SKC
     FM011100 13006KT 4SM BR OVC006
     FM011600 VRB03KT 5SM HZ SKC
     FM012000 18009KT P6SM SKC=



000
FTUS46 KLOX 312300
TAFPMD
TAF
KPMD 312321Z 0100/0124 29018G25KT P6SM SKC
     FM010300 25012KT P6SM SKC
     FM010800 20006KT P6SM SKC
     FM012200 23012KT P6SM SKC=



000
FTUS46 KLOX 312100 AAA
TAFSBA
TAF AMD
KSBA 312117Z 3121/0118 14009KT P6SM SKC
     FM312300 23007KT P6SM SKC
     FM010100 VRB03KT P6SM SKC WS010/35025KT
     FM010800 VRB03KT P6SM SKC
     FM011200 VRB03KT 3SM BR OVC006=



000
FTUS46 KLOX 312100 AAA
TAFWJF
TAF AMD
KWJF 312117Z 3121/0118 28022G32KT P6SM SKC
     FM010100 25016G24KT P6SM SKC
     FM010400 25012KT P6SM SKC
     FM010800 VRB03KT P6SM SKC=



000
FTUS46 KLOX 312100 AAA
TAFPMD
TAF AMD
KPMD 312117Z 3121/0118 29018G26KT P6SM SKC
     FM010300 25012KT P6SM SKC
     FM010800 20006KT P6SM SKC=



000
FTUS46 KLOX 312000 AAA
TAFLAX
TAF AMD
KLAX 312050Z 3121/0124 27012KT P6SM SKC
     FM010400 VRB03KT P6SM SKC
     FM010800 VRB03KT 5SM BR OVC008
     FM011600 VRB03KT 6SM HZ OVC012
     FM011900 27010KT P6SM FEW015=



000
FTUS46 KLOX 311700
TAFWJF
TAF
KWJF 311731Z 3118/0118 27018KT P6SM SKC
     FM312100 25022G32KT P6SM SKC
     FM010100 25016G24KT P6SM SKC
     FM010400 25012KT P6SM SKC
     FM010800 VRB03KT P6SM SKC=



000
FTUS46 KLOX 311700
TAFPMD
TAF
KPMD 311731Z 3118/0118 26010KT P6SM SKC
     FM312100 25018G26KT P6SM SKC
     FM010300 25012KT P6SM SKC
     FM010800 20006KT P6SM SKC=



000
FTUS46 KLOX 311700
TAFSMX
TAF
KSMX 311731Z 3118/0118 31010KT P6SM SKC
     FM312100 31015KT P6SM SKC
     FM010300 32007KT P6SM SKC
     FM010700 VRB03KT 4SM BR OVC004
     FM011000 VRB03KT 1/2SM FG VV002
     FM011500 VRB03KT 3SM BR OVC004=



000
FTUS46 KLOX 311700
TAFBUR
TAF
KBUR 311731Z 3118/0118 VRB03KT P6SM SKC
     FM312100 17008KT P6SM SKC
     FM010200 12006KT P6SM SKC
     FM010600 VRB03KT P6SM SKC
     FM011100 VRB03KT 4SM BR OVC006
     FM011600 VRB03KT 5SM HZ FEW010=



000
FTUS46 KLOX 311700
TAFSBP
TAF
KSBP 311731Z 3118/0118 31010KT P6SM SKC
     FM312100 31015KT P6SM SKC
     FM010400 32008KT P6SM SKC
     FM011000 VRB03KT P6SM OVC004
     FM011600 VRB03KT P6SM FEW008=



000
FTUS46 KLOX 311700
TAFLAX
TAF
KLAX 311731Z 3118/0124 27007KT P6SM FEW015
     FM312000 27012KT P6SM SKC
     FM010400 VRB03KT P6SM SKC
     FM010800 VRB03KT 5SM BR OVC008
     FM011600 VRB03KT 6SM HZ OVC012
     FM011900 27010KT P6SM FEW015=



000
FTUS46 KLOX 311700
TAFSBA
TAF
KSBA 311731Z 3118/0118 17007KT P6SM SKC
     FM312100 23007KT P6SM SKC
     FM010100 VRB03KT P6SM SKC WS010/35025KT
     FM010800 VRB03KT P6SM SKC
     FM011200 VRB03KT 3SM BR OVC006=



000
FTUS46 KLOX 311700
TAFLGB
TAF
KLGB 311731Z 3118/0118 VRB03KT P6SM SKC
     FM312000 19007KT P6SM SKC
     FM010000 29008KT P6SM SKC
     FM010400 VRB03KT P6SM SKC
     FM010800 VRB03KT P6SM OVC008
     FM011500 VRB03KT P6SM OVC012=



000
FTUS46 KLOX 311700
TAFPRB
TAF
KPRB 311731Z 3118/0118 31007KT P6SM SKC
     FM312300 32014KT P6SM SKC
     FM010500 32010KT P6SM SKC
     FM011000 VRB03KT P6SM SKC=



000
FTUS46 KLOX 311700
TAFVNY
TAF
KVNY 311731Z 3118/0118 VRB03KT P6SM SKC
     FM312100 14008KT P6SM SKC
     FM010300 VRB03KT P6SM SKC
     FM011100 VRB03KT 4SM BR OVC006
     FM011600 VRB03KT 5SM HZ FEW010=



000
FTUS46 KLOX 311600 AAC
TAFBUR
TAF AMD
KBUR 311602Z 3116/0112 VRB03KT 5SM HZ SKC
     FM311800 VRB03KT P6SM SKC
     FM312100 18009KT P6SM SKC
     FM010500 VRB03KT P6SM SKC=



000
FTUS46 KLOX 311600 AAC
TAFLAX
TAF AMD
KLAX 311602Z 3116/0118 VRB03KT P6SM SCT015
     FM311800 27006KT P6SM FEW015
     FM312000 27012KT P6SM SKC
     FM010400 26007KT P6SM SKC
     FM010730 VRB03KT P6SM BKN008
     FM011000 16006KT P6SM OVC012
     FM011700 23005KT P6SM SCT015=



000
FTUS46 KLOX 311400 AAB
TAFLAX
TAF AMD
KLAX 311450Z 3115/0118 VRB03KT P6SM BKN012
     FM311630 27006KT P6SM SCT015
     FM312000 27012KT P6SM SKC
     FM010400 26007KT P6SM SKC
     FM010730 VRB03KT P6SM BKN008
     FM011000 16006KT P6SM OVC012
     FM011700 23005KT P6SM SCT015=



000
FTUS46 KLOX 311400 AAA
TAFSMX
TAF AMD
KSMX 311432Z 3115/0112 VRB03KT 5SM BR SCT003
     FM311600 VRB03KT P6SM SKC
     FM311800 31008KT P6SM SKC
     FM312100 31015G20KT P6SM SKC
     FM010300 30008KT P6SM SKC
     FM010700 VRB03KT 3SM BR BKN005
     FM011000 VRB03KT 1/2SM FG VV001=



000
FTUS46 KLOX 311400 AAB
TAFBUR
TAF AMD
KBUR 311431Z 3115/0112 VRB03KT 4SM BR BKN005
     FM311530 VRB03KT 6SM HZ SKC
     FM311700 VRB03KT P6SM SKC
     FM312100 18009KT P6SM SKC
     FM010500 VRB03KT P6SM SKC=



000
FTUS46 KLOX 311300 AAA
TAFBUR
TAF AMD
KBUR 311357Z 3114/0112 VRB03KT 4SM BR FEW005
     FM311600 VRB03KT P6SM SKC
     FM312100 18009KT P6SM SKC
     FM010500 VRB03KT P6SM SKC=



000
FTUS46 KLOX 311300 AAA
TAFLAX
TAF AMD
KLAX 311326Z 3113/0118 VRB03KT P6SM OVC010
     FM311630 27006KT P6SM SCT010
     FM312000 27012KT P6SM SKC
     FM010400 26007KT P6SM SKC
     FM010730 VRB03KT P6SM BKN008
     FM011000 16006KT P6SM OVC012
     FM011700 23005KT P6SM SCT015=



000
FTUS46 KLOX 311300 AAA
TAFLGB
TAF AMD
KLGB 311320Z 3113/0112 VRB03KT P6SM OVC012
     FM311600 VRB03KT P6SM SKC
     FM312000 19007KT P6SM SKC
     FM010000 29008KT P6SM SKC
     FM010400 VRB03KT P6SM SKC
     FM010700 VRB03KT 5SM BR OVC009=



000
FTUS46 KLOX 311100
TAFWJF
TAF
KWJF 311124Z 3112/0112 26015KT P6SM SKC
     FM312100 25025G35KT P6SM SKC
     FM010300 25015G22KT P6SM SKC
     FM010800 25012KT P6SM SKC=



000
FTUS46 KLOX 311100
TAFSMX
TAF
KSMX 311124Z 3112/0112 VRB03KT P6SM SKC
     FM311800 31008KT P6SM SKC
     FM312100 31015G20KT P6SM SKC
     FM010300 30008KT P6SM SKC
     FM010700 VRB03KT 3SM BR BKN005
     FM011000 VRB03KT 1/2SM FG VV001=



000
FTUS46 KLOX 311100
TAFLAX
TAF
KLAX 311124Z 3112/0118 VRB03KT 5SM BR OVC006
     FM311630 27006KT 6SM HZ SCT010
     FM312000 27012KT P6SM SKC
     FM010400 26007KT P6SM SKC
     FM010730 VRB03KT P6SM BKN008
     FM011000 16006KT P6SM OVC012
     FM011700 23005KT P6SM SCT015=



000
FTUS46 KLOX 311100
TAFVNY
TAF
KVNY 311124Z 3112/0112 VRB03KT P6SM SKC
     FM312100 13009KT P6SM SKC
     FM010500 VRB03KT P6SM SKC=



000
FTUS46 KLOX 311100
TAFLGB
TAF
KLGB 311124Z 3112/0112 VRB03KT P6SM OVC005
     FM311300 VRB03KT 3SM BR OVC004
     FM311600 VRB03KT P6SM SKC
     FM312000 19007KT P6SM SKC
     FM010000 29008KT P6SM SKC
     FM010400 VRB03KT P6SM SKC
     FM010700 VRB03KT 5SM BR OVC009=



000
FTUS46 KLOX 311100
TAFPMD
TAF
KPMD 311124Z 3112/0112 26008KT P6SM SKC
     FM311500 25015KT P6SM SKC
     FM312100 25020G30KT P6SM SKC
     FM010400 25012KT P6SM SKC=



000
FTUS46 KLOX 311100
TAFBUR
TAF
KBUR 311124Z 3112/0112 VRB03KT P6SM SKC
     FM312100 18009KT P6SM SKC
     FM010500 VRB03KT P6SM SKC=



000
FTUS46 KLOX 311100
TAFPRB
TAF
KPRB 311124Z 3112/0112 VRB03KT P6SM SKC
     FM312000 32007KT P6SM SKC
     FM312300 21012KT P6SM SKC
     FM010300 31010KT P6SM SKC
     FM010800 VRB03KT P6SM SKC=



000
FTUS46 KLOX 311100
TAFSBA
TAF
KSBA 311124Z 3112/0112 VRB03KT P6SM SKC
     FM311800 17007KT P6SM SKC
     FM312100 23007KT P6SM SKC
     FM010100 VRB03KT P6SM SKC WS010/35025KT
     FM010700 VRB03KT P6SM SKC=



000
FTUS46 KLOX 311100
TAFSBP
TAF
KSBP 311124Z 3112/0112 VRB03KT P6SM SCT250
     FM311700 30008KT P6SM SKC
     FM312000 30015G20KT P6SM SKC
     FM010300 30008KT P6SM SKC
     FM010500 VRB03KT P6SM SKC
     FM011000 VRB03KT 5SM BR BKN005=



000
FTUS46 KLOX 311100 AAA
TAFLGB
TAF AMD
KLGB 311106Z 3111/0106 VRB03KT P6SM OVC005
     FM311300 VRB03KT 3SM BR OVC004
     FM311600 VRB03KT P6SM SKC
     FM312000 19007KT P6SM SKC
     FM010000 29008KT P6SM SKC
     FM010400 VRB03KT P6SM SKC=



000
FTUS46 KLOX 310900 AAA
TAFLAX
TAF AMD
KLAX 310925Z 3109/0112 VRB03KT P6SM SKC
     FM311200 VRB03KT 5SM BR OVC008
     FM311600 27006KT 6SM HZ SCT010
     FM312000 27012KT P6SM SKC
     FM010400 26007KT P6SM SKC
     FM010700 VRB03KT 5SM BR OVC010=



000
FTUS46 KLOX 310500
TAFSMX
TAF
KSMX 310529Z 3106/0106 VRB03KT P6SM SKC
     FM311800 31008KT P6SM SKC
     FM312100 31015G20KT P6SM SKC
     FM010300 30008KT P6SM SKC=



000
FTUS46 KLOX 310500
TAFBUR
TAF
KBUR 310529Z 3106/0106 VRB03KT P6SM SKC
     FM312100 18009KT P6SM SKC
     FM010500 VRB03KT P6SM SKC=



000
FTUS46 KLOX 310500
TAFVNY
TAF
KVNY 310529Z 3106/0106 VRB03KT P6SM SKC
     FM312100 13009KT P6SM SKC
     FM010500 VRB03KT P6SM SKC=



000
FTUS46 KLOX 310500
TAFPMD
TAF
KPMD 310529Z 3106/0106 26006KT P6SM SKC
     FM311500 25015KT P6SM SKC
     FM312100 25018G28KT P6SM SKC
     FM010400 25012KT P6SM SKC=



000
FTUS46 KLOX 310500
TAFPRB
TAF
KPRB 310529Z 3106/0106 32012KT P6SM SCT250
     FM311000 VRB03KT P6SM SKC
     FM312000 32007KT P6SM SKC
     FM312300 21012KT P6SM SKC
     FM010300 31010KT P6SM SKC=



000
FTUS46 KLOX 310500
TAFLGB
TAF
KLGB 310529Z 3106/0106 VRB03KT P6SM SKC
     FM311200 VRB03KT P6SM OVC008
     FM311600 VRB03KT P6SM SKC
     FM312000 19007KT P6SM SKC
     FM010000 29008KT P6SM SKC
     FM010400 VRB03KT P6SM SKC=



000
FTUS46 KLOX 310500
TAFLAX
TAF
KLAX 310529Z 3106/0112 VRB03KT P6SM SKC
     FM311200 VRB03KT 5SM BR OVC008
     FM311600 27006KT 6SM HZ SCT010
     FM312000 27012KT P6SM SKC
     FM010400 26007KT P6SM SKC
     FM010700 VRB03KT 5SM BR OVC010=



000
FTUS46 KLOX 310500
TAFSBP
TAF
KSBP 310529Z 3106/0106 VRB03KT P6SM SKC
     FM311700 30008KT P6SM SKC
     FM312000 30015G20KT P6SM SKC
     FM010300 30008KT P6SM SKC=



000
FTUS46 KLOX 310500
TAFSBA
TAF
KSBA 310529Z 3106/0106 VRB03KT P6SM SKC WS010/35030KT
     FM311100 VRB03KT P6SM SKC
     FM311800 17007KT P6SM SKC
     FM312100 23007KT P6SM SKC
     FM010100 VRB03KT P6SM SKC WS010/35025KT=



000
FTUS46 KLOX 310500
TAFWJF
TAF
KWJF 310529Z 3106/0106 26010KT P6SM SKC
     FM311500 25015KT P6SM SKC
     FM312100 25022G32KT P6SM SKC
     FM010400 25015KT P6SM SKC=



000
FTUS46 KLOX 310300 AAA
TAFWJF
TAF AMD
KWJF 310301Z 3103/3124 27015G20KT P6SM SKC
     FM310800 25014KT P6SM SKC
     FM312000 25020G28KT P6SM SKC
     FM312200 24024G32KT P6SM SKC=



000
FTUS46 KLOX 310300 AAA
TAFPRB
TAF AMD
KPRB 310300Z 3103/3124 29011KT P6SM SCT250
     FM310500 32008KT P6SM SCT250
     FM311000 VRB03KT P6SM SKC
     FM312000 32005KT P6SM SKC
     FM312300 21012KT P6SM SKC=



000
FTUS46 KLOX 310300 AAA
TAFLAX
TAF AMD
KLAX 310300Z 3103/0106 27005KT P6SM FEW200 SCT250
     FM310500 VRB03KT P6SM SKC
     FM311100 VRB03KT 4SM BR OVC008
     FM311600 27006KT 6SM HZ SCT010
     FM312000 27011KT P6SM SKC
     FM010400 26007KT 4SM BR BKN007=



000
FTUS46 KLOX 302300
TAFLGB
TAF
KLGB 302337Z 3100/3124 30009KT P6SM SKC
     FM310400 VRB03KT P6SM SKC
     FM311100 VRB03KT P6SM OVC008
     FM311700 18005KT P6SM SKC
     FM312000 20007KT P6SM SKC=



000
FTUS46 KLOX 302300
TAFSBA
TAF
KSBA 302337Z 3100/3124 15006KT P6SM SKC
     FM310200 10004KT P6SM SKC WS010/35030KT
     FM311100 VRB03KT P6SM SKC
     FM311800 18006KT P6SM SKC
     FM312100 23007KT P6SM SKC=



000
FTUS46 KLOX 302300
TAFWJF
TAF
KWJF 302337Z 3100/3124 26025G33KT P6SM SKC
     FM310200 26018G26KT P6SM SKC
     FM310800 25014KT P6SM SKC
     FM312000 25020G28KT P6SM SKC
     FM312200 24024G32KT P6SM SKC=



000
FTUS46 KLOX 302300
TAFVNY
TAF
KVNY 302337Z 3100/3124 15009KT P6SM SKC
     FM310200 12006KT P6SM SKC
     FM310800 VRB03KT P6SM SKC
     FM312100 15009KT P6SM SKC=



000
FTUS46 KLOX 302300
TAFBUR
TAF
KBUR 302337Z 3100/3124 17009KT P6SM SKC
     FM310300 12007KT P6SM SKC
     FM310900 VRB03KT P6SM SKC
     FM311700 13007KT P6SM SKC
     FM312100 18009KT P6SM SKC=



000
FTUS46 KLOX 302300
TAFLAX
TAF
KLAX 302337Z 3100/0106 27014KT P6SM SKC
     FM310100 26009KT P6SM SKC
     FM310400 VRB03KT P6SM SKC
     FM311100 VRB03KT 4SM BR OVC008
     FM311600 27006KT 6SM HZ SCT010
     FM312000 27011KT P6SM SKC
     FM010400 26007KT 4SM BR BKN007=



000
FTUS46 KLOX 302300
TAFSBP
TAF
KSBP 302337Z 3100/3124 31015KT P6SM SCT250
     FM310200 32010KT P6SM SKC
     FM310700 VRB03KT P6SM SKC
     FM311800 29006KT P6SM SKC
     FM312000 30015KT P6SM SKC=



000
FTUS46 KLOX 302300
TAFPMD
TAF
KPMD 302337Z 3100/3124 29022G30KT P6SM SKC
     FM310300 26015KT P6SM SKC
     FM310800 24012KT P6SM SKC
     FM312000 28014G20KT P6SM SKC
     FM312200 25018G25KT P6SM SKC=



000
FTUS46 KLOX 302300
TAFSMX
TAF
KSMX 302337Z 3100/3124 31016KT P6SM SCT250
     FM310300 31008KT P6SM SKC
     FM310800 VRB03KT 1SM BR OVC002
     FM311100 VRB03KT 1/2SM FG OVC001
     FM311600 VRB03KT 2SM BR OVC002
     FM311700 32007KT P6SM SKC
     FM312100 31012KT P6SM SKC=



000
FTUS46 KLOX 302300
TAFPRB
TAF
KPRB 302337Z 3100/3124 32015KT P6SM SCT250
     FM310500 32008KT P6SM SKC
     FM311000 VRB03KT P6SM SKC
     FM312000 32005KT P6SM SKC
     FM312300 21012KT P6SM SKC=



000
FTUS46 KLOX 302100 AAB
TAFPMD
TAF AMD
KPMD 302102Z 3021/3118 29018KT P6SM SKC
     FM302300 26022G32KT P6SM SKC
     FM310300 26014KT P6SM SKC
     FM310800 24010KT P6SM SKC=



000
FTUS46 KLOX 302100 AAA
TAFSBP
TAF AMD
KSBP 302102Z 3021/3118 32015G22KT P6SM SCT250
     FM310200 32010KT P6SM SKC
     FM310700 VRB03KT P6SM SKC=



000
FTUS46 KLOX 302000 AAA
TAFLAX
TAF AMD
KLAX 302050Z 3021/3124 27012KT P6SM SKC
     FM310400 VRB03KT P6SM SKC
     FM311100 VRB03KT 4SM BR OVC008
     FM311600 27006KT 6SM HZ SCT010
     FM312000 27012KT P6SM SKC=



000
FTUS46 KLOX 301900 AAA
TAFPMD
TAF AMD
KPMD 301956Z 3020/3118 29014KT P6SM SKC
     FM302100 26022G32KT P6SM SKC
     FM310300 26014KT P6SM SKC
     FM310800 24010KT P6SM SKC=



000
FTUS46 KLOX 301900 AAA
TAFWJF
TAF AMD
KWJF 301956Z 3020/3118 26025G35KT P6SM SKC
     FM310200 26018G28KT P6SM SKC
     FM310600 25014KT P6SM SKC=



    US Dept of Commerce
    National Oceanic and Atmospheric Administration
    National Weather Service
    1325 East West Highway
    Silver Spring, MD 20910
    Page Author: NWS Internet Services Team
Disclaimer
Information Quality
Credits
Glossary
Privacy Policy
Freedom of Information Act (FOIA)
About Us
Career Opportunities